createdAt,value
2019-06-15T00:00:08.312Z,98971.00
2019-06-15T00:01:13.418Z,98964.00
2019-06-15T00:02:19.869Z,98953.00
2019-06-15T00:03:25.263Z,98945.00
2019-06-15T00:04:31.402Z,98933.00
2019-06-15T00:05:36.696Z,98941.00
2019-06-15T00:06:42.701Z,98929.00
2019-06-15T00:07:47.849Z,98906.00
2019-06-15T00:08:54.081Z,98890.00
2019-06-15T00:09:59.440Z,98888.00
2019-06-15T00:11:05.457Z,98916.00
2019-06-15T00:12:11.186Z,98934.00
2019-06-15T00:13:17.115Z,98933.00
2019-06-15T00:14:22.554Z,98939.00
2019-06-15T00:15:28.493Z,98933.00
2019-06-15T00:16:33.949Z,98934.00
2019-06-15T00:17:40.247Z,98925.00
2019-06-15T00:18:45.558Z,98915.00
2019-06-15T00:19:51.797Z,98906.00
2019-06-15T00:20:56.834Z,98893.00
2019-06-15T00:22:02.767Z,98897.00
2019-06-15T00:23:07.842Z,98896.00
2019-06-15T00:24:13.710Z,98908.00
2019-06-15T00:25:19.668Z,98914.00
2019-06-15T00:26:25.928Z,98911.00
2019-06-15T00:27:31.052Z,98895.00
2019-06-15T00:28:37.321Z,98898.00
2019-06-15T00:29:42.445Z,98885.00
2019-06-15T00:30:48.646Z,98879.00
2019-06-15T00:31:53.969Z,98885.00
2019-06-15T00:33:00.199Z,98874.00
2019-06-15T00:34:05.534Z,98883.00
2019-06-15T00:35:12.821Z,98891.00
2019-06-15T00:36:18.109Z,98878.00
2019-06-15T00:37:24.053Z,98888.00
2019-06-15T00:38:29.837Z,98888.00
2019-06-15T00:39:36.124Z,98903.00
2019-06-15T00:40:41.213Z,98909.00
2019-06-15T00:41:47.483Z,98909.00
2019-06-15T00:42:52.558Z,98909.00
2019-06-15T00:43:58.817Z,98911.00
2019-06-15T00:45:04.879Z,98908.00
2019-06-15T00:46:11.264Z,98905.00
2019-06-15T00:47:16.731Z,98902.00
2019-06-15T00:48:22.626Z,98890.00
2019-06-15T00:49:28.020Z,98890.00
2019-06-15T00:50:34.208Z,98889.00
2019-06-15T00:51:39.168Z,98890.00
2019-06-15T00:52:45.436Z,98891.00
2019-06-15T00:53:50.842Z,98893.00
2019-06-15T00:54:56.793Z,98892.00
2019-06-15T00:56:02.032Z,98900.00
2019-06-15T00:57:08.523Z,98898.00
2019-06-15T00:58:13.732Z,98898.00
2019-06-15T00:59:20.149Z,98900.00
2019-06-15T01:00:33.109Z,98900.00
2019-06-15T01:01:42.162Z,98903.00
2019-06-15T01:02:49.078Z,98896.00
2019-06-15T01:03:58.619Z,98891.00
2019-06-15T01:05:04.896Z,98891.00
2019-06-15T01:06:12.090Z,98885.00
2019-06-15T01:07:19.225Z,98884.00
2019-06-15T01:08:29.979Z,98881.00
2019-06-15T01:09:40.358Z,98876.00
2019-06-15T01:10:49.776Z,98874.00
2019-06-15T01:11:54.950Z,98863.00
2019-06-15T01:13:01.146Z,98868.00
2019-06-15T01:14:06.330Z,98864.00
2019-06-15T01:15:12.654Z,98852.00
2019-06-15T01:16:17.850Z,98849.00
2019-06-15T01:17:24.143Z,98837.00
2019-06-15T01:18:29.471Z,98844.00
2019-06-15T01:19:36.013Z,98833.00
2019-06-15T01:20:41.385Z,98834.00
2019-06-15T01:21:47.184Z,98823.00
2019-06-15T01:22:52.465Z,98826.00
2019-06-15T01:23:58.345Z,98814.00
2019-06-15T01:25:05.806Z,98815.00
2019-06-15T01:26:11.172Z,98818.00
2019-06-15T01:27:16.658Z,98819.00
2019-06-15T01:28:22.779Z,98821.00
2019-06-15T01:29:28.266Z,98818.00
2019-06-15T01:30:34.811Z,98814.00
2019-06-15T01:31:40.170Z,98821.00
2019-06-15T01:32:46.268Z,98815.00
2019-06-15T01:33:51.279Z,98816.00
2019-06-15T01:34:57.076Z,98810.00
2019-06-15T01:36:02.776Z,98800.00
2019-06-15T01:37:08.748Z,98791.00
2019-06-15T01:38:14.043Z,98787.00
2019-06-15T01:39:19.923Z,98796.00
2019-06-15T01:40:25.435Z,98780.00
2019-06-15T01:41:31.306Z,98782.00
2019-06-15T01:42:36.678Z,98777.00
2019-06-15T01:43:42.817Z,98775.00
2019-06-15T01:44:47.831Z,98763.00
2019-06-15T01:45:53.633Z,98773.00
2019-06-15T01:46:58.814Z,98768.00
2019-06-15T01:48:05.056Z,98775.00
2019-06-15T01:49:11.027Z,98773.00
2019-06-15T01:50:16.977Z,98771.00
2019-06-15T01:51:22.142Z,98765.00
2019-06-15T01:52:28.575Z,98768.00
2019-06-15T01:53:34.132Z,98758.00
2019-06-15T01:54:40.443Z,98769.00
2019-06-15T01:55:45.840Z,98766.00
2019-06-15T01:56:52.053Z,98760.00
2019-06-15T01:57:57.851Z,98756.00
2019-06-15T01:59:04.043Z,98756.00
2019-06-15T02:00:12.029Z,98751.00
2019-06-15T02:01:25.069Z,98748.00
2019-06-15T02:02:34.989Z,98742.00
2019-06-15T02:03:40.915Z,98738.00
2019-06-15T02:04:46.274Z,98736.00
2019-06-15T02:05:52.221Z,98739.00
2019-06-15T02:07:00.143Z,98740.00
2019-06-15T02:08:06.238Z,98740.00
2019-06-15T02:09:11.347Z,98736.00
2019-06-15T02:10:20.318Z,98723.00
2019-06-15T02:11:25.608Z,98726.00
2019-06-15T02:12:33.437Z,98722.00
2019-06-15T02:13:38.903Z,98715.00
2019-06-15T02:14:44.816Z,98722.00
2019-06-15T02:15:49.987Z,98722.00
2019-06-15T02:16:56.196Z,98716.00
2019-06-15T02:18:02.190Z,98722.00
2019-06-15T02:19:08.825Z,98719.00
2019-06-15T02:20:14.594Z,98724.00
2019-06-15T02:21:20.834Z,98715.00
2019-06-15T02:22:25.949Z,98720.00
2019-06-15T02:23:32.138Z,98718.00
2019-06-15T02:24:37.432Z,98725.00
2019-06-15T02:25:43.632Z,98726.00
2019-06-15T02:26:49.345Z,98726.00
2019-06-15T02:27:56.582Z,98723.00
2019-06-15T02:29:01.917Z,98729.00
2019-06-15T02:30:08.827Z,98728.00
2019-06-15T02:31:14.269Z,98720.00
2019-06-15T02:32:20.212Z,98722.00
2019-06-15T02:33:25.381Z,98718.00
2019-06-15T02:34:31.657Z,98715.00
2019-06-15T02:35:36.855Z,98711.00
2019-06-15T02:36:42.707Z,98718.00
2019-06-15T02:37:47.723Z,98705.00
2019-06-15T02:38:53.873Z,98707.00
2019-06-15T02:39:58.881Z,98705.00
2019-06-15T02:41:05.123Z,98704.00
2019-06-15T02:42:10.281Z,98703.00
2019-06-15T02:43:16.175Z,98705.00
2019-06-15T02:44:21.326Z,98699.00
2019-06-15T02:45:27.712Z,98702.00
2019-06-15T02:46:32.914Z,98699.00
2019-06-15T02:47:38.911Z,98707.00
2019-06-15T02:48:44.526Z,98702.00
2019-06-15T02:49:50.386Z,98709.00
2019-06-15T02:50:56.213Z,98708.00
2019-06-15T02:52:02.678Z,98712.00
2019-06-15T02:53:07.839Z,98706.00
2019-06-15T02:54:13.753Z,98713.00
2019-06-15T02:55:18.941Z,98718.00
2019-06-15T02:56:25.175Z,98700.00
2019-06-15T02:57:30.633Z,98706.00
2019-06-15T02:58:36.865Z,98696.00
2019-06-15T02:59:42.501Z,98712.00
2019-06-15T03:01:07.664Z,98718.00
2019-06-15T03:02:13.158Z,98724.00
2019-06-15T03:03:20.261Z,98711.00
2019-06-15T03:04:25.468Z,98722.00
2019-06-15T03:05:31.357Z,98716.00
2019-06-15T03:06:36.640Z,98729.00
2019-06-15T03:07:43.595Z,98721.00
2019-06-15T03:08:48.919Z,98727.00
2019-06-15T03:09:55.613Z,98734.00
2019-06-15T03:11:00.780Z,98738.00
2019-06-15T03:12:07.537Z,98740.00
2019-06-15T03:13:14.486Z,98741.00
2019-06-15T03:14:20.465Z,98739.00
2019-06-15T03:15:25.636Z,98741.00
2019-06-15T03:16:31.823Z,98729.00
2019-06-15T03:17:36.957Z,98727.00
2019-06-15T03:18:43.313Z,98727.00
2019-06-15T03:19:48.798Z,98725.00
2019-06-15T03:20:54.576Z,98729.00
2019-06-15T03:21:59.909Z,98739.00
2019-06-15T03:23:06.238Z,98736.00
2019-06-15T03:24:11.461Z,98737.00
2019-06-15T03:25:17.513Z,98741.00
2019-06-15T03:26:22.613Z,98740.00
2019-06-15T03:27:29.103Z,98737.00
2019-06-15T03:28:34.622Z,98737.00
2019-06-15T03:29:40.812Z,98740.00
2019-06-15T03:30:45.973Z,98746.00
2019-06-15T03:31:51.776Z,98744.00
2019-06-15T03:32:56.997Z,98744.00
2019-06-15T03:34:03.106Z,98736.00
2019-06-15T03:35:10.924Z,98731.00
2019-06-15T03:36:17.121Z,98731.00
2019-06-15T03:37:22.059Z,98730.00
2019-06-15T03:38:27.914Z,98725.00
2019-06-15T03:39:33.019Z,98720.00
2019-06-15T03:40:39.412Z,98722.00
2019-06-15T03:41:44.736Z,98732.00
2019-06-15T03:42:50.696Z,98730.00
2019-06-15T03:43:56.370Z,98727.00
2019-06-15T03:45:02.194Z,98723.00
2019-06-15T03:46:07.444Z,98734.00
2019-06-15T03:47:13.396Z,98733.00
2019-06-15T03:48:18.569Z,98739.00
2019-06-15T03:49:24.993Z,98733.00
2019-06-15T03:50:30.699Z,98733.00
2019-06-15T03:51:36.841Z,98731.00
2019-06-15T03:52:42.021Z,98729.00
2019-06-15T03:53:48.412Z,98724.00
2019-06-15T03:54:54.005Z,98723.00
2019-06-15T03:55:59.871Z,98725.00
2019-06-15T03:57:05.027Z,98715.00
2019-06-15T03:58:10.907Z,98718.00
2019-06-15T03:59:16.008Z,98712.00
2019-06-15T04:00:45.733Z,98697.00
2019-06-15T04:01:51.667Z,98711.00
2019-06-15T04:02:57.543Z,98704.00
2019-06-15T04:04:03.256Z,98694.00
2019-06-15T04:05:09.128Z,98709.00
2019-06-15T04:06:14.628Z,98705.00
2019-06-15T04:07:20.513Z,98709.00
2019-06-15T04:08:26.126Z,98715.00
2019-06-15T04:09:32.241Z,98715.00
2019-06-15T04:10:37.866Z,98719.00
2019-06-15T04:11:43.650Z,98712.00
2019-06-15T04:12:49.027Z,98719.00
2019-06-15T04:13:55.505Z,98712.00
2019-06-15T04:15:00.833Z,98716.00
2019-06-15T04:16:06.727Z,98720.00
2019-06-15T04:17:11.850Z,98721.00
2019-06-15T04:18:18.008Z,98726.00
2019-06-15T04:19:23.092Z,98725.00
2019-06-15T04:20:29.400Z,98729.00
2019-06-15T04:21:34.692Z,98725.00
2019-06-15T04:22:40.502Z,98736.00
2019-06-15T04:23:46.142Z,98730.00
2019-06-15T04:24:52.877Z,98733.00
2019-06-15T04:25:57.962Z,98740.00
2019-06-15T04:27:04.732Z,98731.00
2019-06-15T04:28:09.891Z,98727.00
2019-06-15T04:29:16.023Z,98741.00
2019-06-15T04:30:21.549Z,98738.00
2019-06-15T04:31:27.341Z,98749.00
2019-06-15T04:32:32.719Z,98756.00
2019-06-15T04:33:39.242Z,98767.00
2019-06-15T04:34:44.476Z,98771.00
2019-06-15T04:35:50.631Z,98776.00
2019-06-15T04:36:56.488Z,98780.00
2019-06-15T04:38:02.873Z,98792.00
2019-06-15T04:39:08.703Z,98781.00
2019-06-15T04:40:14.658Z,98783.00
2019-06-15T04:41:20.062Z,98782.00
2019-06-15T04:42:26.563Z,98788.00
2019-06-15T04:43:31.744Z,98785.00
2019-06-15T04:44:38.196Z,98787.00
2019-06-15T04:45:43.575Z,98784.00
2019-06-15T04:46:49.777Z,98776.00
2019-06-15T04:47:55.134Z,98792.00
2019-06-15T04:49:01.459Z,98777.00
2019-06-15T04:50:07.678Z,98778.00
2019-06-15T04:51:13.589Z,98774.00
2019-06-15T04:52:18.679Z,98772.00
2019-06-15T04:53:24.870Z,98769.00
2019-06-15T04:54:29.959Z,98764.00
2019-06-15T04:55:35.953Z,98773.00
2019-06-15T04:56:50.472Z,98769.00
2019-06-15T04:57:49.245Z,98781.00
2019-06-15T04:58:54.546Z,98780.00
2019-06-15T05:00:00.604Z,98787.00
2019-06-15T05:01:07.351Z,98792.00
2019-06-15T05:02:13.614Z,98794.00
2019-06-15T05:03:19.432Z,98783.00
2019-06-15T05:04:25.539Z,98776.00
2019-06-15T05:05:30.710Z,98762.00
2019-06-15T05:06:39.317Z,98768.00
2019-06-15T05:07:44.486Z,98764.00
2019-06-15T05:08:50.519Z,98757.00
2019-06-15T05:09:55.520Z,98757.00
2019-06-15T05:11:03.669Z,98764.00
2019-06-15T05:12:08.913Z,98770.00
2019-06-15T05:13:15.348Z,98771.00
2019-06-15T05:14:20.489Z,98769.00
2019-06-15T05:15:26.310Z,98762.00
2019-06-15T05:16:31.741Z,98760.00
2019-06-15T05:17:37.695Z,98764.00
2019-06-15T05:18:43.198Z,98762.00
2019-06-15T05:19:49.302Z,98763.00
2019-06-15T05:20:54.459Z,98769.00
2019-06-15T05:22:00.523Z,98769.00
2019-06-15T05:23:06.163Z,98776.00
2019-06-15T05:24:12.711Z,98765.00
2019-06-15T05:25:17.746Z,98777.00
2019-06-15T05:26:23.847Z,98783.00
2019-06-15T05:27:29.038Z,98784.00
2019-06-15T05:28:35.284Z,98791.00
2019-06-15T05:29:40.383Z,98782.00
2019-06-15T05:30:46.258Z,98787.00
2019-06-15T05:31:51.687Z,98779.00
2019-06-15T05:32:57.483Z,98780.00
2019-06-15T05:34:03.057Z,98772.00
2019-06-15T05:35:11.083Z,98765.00
2019-06-15T05:36:16.255Z,98771.00
2019-06-15T05:37:22.483Z,98775.00
2019-06-15T05:38:27.790Z,98777.00
2019-06-15T05:39:33.875Z,98791.00
2019-06-15T05:40:39.618Z,98796.00
2019-06-15T05:41:45.543Z,98803.00
2019-06-15T05:42:50.898Z,98800.00
2019-06-15T05:43:57.025Z,98793.00
2019-06-15T05:45:02.593Z,98798.00
2019-06-15T05:46:08.933Z,98795.00
2019-06-15T05:47:14.395Z,98793.00
2019-06-15T05:48:20.346Z,98798.00
2019-06-15T05:49:25.360Z,98803.00
2019-06-15T05:50:31.200Z,98799.00
2019-06-15T05:51:36.720Z,98809.00
2019-06-15T05:52:42.776Z,98814.00
2019-06-15T05:53:48.181Z,98811.00
2019-06-15T05:54:53.913Z,98802.00
2019-06-15T05:55:58.910Z,98797.00
2019-06-15T05:57:05.071Z,98794.00
2019-06-15T05:58:10.359Z,98795.00
2019-06-15T05:59:16.395Z,98812.00
2019-06-15T06:00:21.608Z,98813.00
2019-06-15T06:01:27.763Z,98807.00
2019-06-15T06:02:32.884Z,98807.00
2019-06-15T06:03:39.451Z,98815.00
2019-06-15T06:04:44.982Z,98818.00
2019-06-15T06:05:51.104Z,98819.00
2019-06-15T06:06:56.868Z,98823.00
2019-06-15T06:08:02.681Z,98825.00
2019-06-15T06:09:08.576Z,98817.00
2019-06-15T06:10:15.589Z,98817.00
2019-06-15T06:11:20.993Z,98821.00
2019-06-15T06:12:27.243Z,98821.00
2019-06-15T06:13:32.819Z,98815.00
2019-06-15T06:14:38.616Z,98812.00
2019-06-15T06:15:44.021Z,98817.00
2019-06-15T06:16:49.890Z,98823.00
2019-06-15T06:17:55.407Z,98823.00
2019-06-15T06:19:01.378Z,98822.00
2019-06-15T06:20:08.596Z,98826.00
2019-06-15T06:21:14.810Z,98820.00
2019-06-15T06:22:20.244Z,98832.00
2019-06-15T06:23:26.048Z,98836.00
2019-06-15T06:24:30.994Z,98839.00
2019-06-15T06:25:36.802Z,98826.00
2019-06-15T06:26:41.751Z,98827.00
2019-06-15T06:27:47.834Z,98828.00
2019-06-15T06:28:57.514Z,98837.00
2019-06-15T06:30:02.234Z,98832.00
2019-06-15T06:31:07.407Z,98838.00
2019-06-15T06:32:13.680Z,98836.00
2019-06-15T06:33:18.762Z,98833.00
2019-06-15T06:34:24.571Z,98829.00
2019-06-15T06:35:30.312Z,98818.00
2019-06-15T06:36:36.534Z,98809.00
2019-06-15T06:37:42.411Z,98817.00
2019-06-15T06:38:48.628Z,98821.00
2019-06-15T06:39:54.186Z,98820.00
2019-06-15T06:41:00.067Z,98828.00
2019-06-15T06:42:05.572Z,98828.00
2019-06-15T06:43:11.951Z,98826.00
2019-06-15T06:44:17.152Z,98831.00
2019-06-15T06:45:23.686Z,98827.00
2019-06-15T06:46:29.133Z,98829.00
2019-06-15T06:47:35.015Z,98828.00
2019-06-15T06:48:40.556Z,98831.00
2019-06-15T06:49:46.851Z,98837.00
2019-06-15T06:50:51.876Z,98847.00
2019-06-15T06:51:57.846Z,98847.00
2019-06-15T06:53:04.063Z,98856.00
2019-06-15T06:54:10.122Z,98849.00
2019-06-15T06:55:15.545Z,98845.00
2019-06-15T06:56:21.984Z,98846.00
2019-06-15T06:57:27.672Z,98852.00
2019-06-15T06:58:33.779Z,98858.00
2019-06-15T06:59:39.134Z,98846.00
2019-06-15T07:00:45.626Z,98852.00
2019-06-15T07:01:51.278Z,98848.00
2019-06-15T07:02:57.194Z,98850.00
2019-06-15T07:04:02.225Z,98854.00
2019-06-15T07:05:09.068Z,98861.00
2019-06-15T07:06:14.266Z,98856.00
2019-06-15T07:07:20.281Z,98865.00
2019-06-15T07:08:25.953Z,98865.00
2019-06-15T07:09:32.421Z,98870.00
2019-06-15T07:10:38.007Z,98870.00
2019-06-15T07:11:44.286Z,98877.00
2019-06-15T07:12:50.095Z,98870.00
2019-06-15T07:13:55.905Z,98869.00
2019-06-15T07:15:04.626Z,98865.00
2019-06-15T07:16:09.193Z,98876.00
2019-06-15T07:17:14.382Z,98872.00
2019-06-15T07:18:20.433Z,98874.00
2019-06-15T07:19:25.615Z,98870.00
2019-06-15T07:20:31.771Z,98869.00
2019-06-15T07:21:36.955Z,98872.00
2019-06-15T07:22:42.838Z,98871.00
2019-06-15T07:23:48.161Z,98869.00
2019-06-15T07:24:54.519Z,98886.00
2019-06-15T07:26:00.223Z,98877.00
2019-06-15T07:27:06.094Z,98880.00
2019-06-15T07:28:11.482Z,98884.00
2019-06-15T07:29:17.969Z,98879.00
2019-06-15T07:30:23.623Z,98884.00
2019-06-15T07:31:30.051Z,98890.00
2019-06-15T07:32:35.228Z,98888.00
2019-06-15T07:33:42.113Z,98894.00
2019-06-15T07:34:47.566Z,98905.00
2019-06-15T07:35:53.535Z,98907.00
2019-06-15T07:37:01.490Z,98908.00
2019-06-15T07:38:06.053Z,98905.00
2019-06-15T07:39:11.150Z,98907.00
2019-06-15T07:40:17.084Z,98916.00
2019-06-15T07:41:22.687Z,98917.00
2019-06-15T07:42:29.132Z,98922.00
2019-06-15T07:43:34.443Z,98923.00
2019-06-15T07:44:40.877Z,98922.00
2019-06-15T07:45:46.670Z,98923.00
2019-06-15T07:46:52.979Z,98918.00
2019-06-15T07:47:58.150Z,98926.00
2019-06-15T07:49:05.076Z,98925.00
2019-06-15T07:50:11.485Z,98926.00
2019-06-15T07:51:17.710Z,98929.00
2019-06-15T07:52:23.495Z,98937.00
2019-06-15T07:53:29.714Z,98939.00
2019-06-15T07:54:36.263Z,98942.00
2019-06-15T07:55:42.945Z,98937.00
2019-06-15T07:56:48.819Z,98938.00
2019-06-15T07:57:54.721Z,98938.00
2019-06-15T07:59:00.066Z,98941.00
2019-06-15T08:00:07.025Z,98943.00
2019-06-15T08:01:12.468Z,98948.00
2019-06-15T08:02:18.654Z,98945.00
2019-06-15T08:03:23.620Z,98943.00
2019-06-15T08:04:29.779Z,98942.00
2019-06-15T08:05:35.259Z,98948.00
2019-06-15T08:06:41.081Z,98948.00
2019-06-15T08:07:46.984Z,98938.00
2019-06-15T08:08:53.170Z,98935.00
2019-06-15T08:09:58.486Z,98944.00
2019-06-15T08:11:04.445Z,98936.00
2019-06-15T08:12:10.090Z,98936.00
2019-06-15T08:13:16.549Z,98944.00
2019-06-15T08:14:22.319Z,98943.00
2019-06-15T08:15:28.472Z,98947.00
2019-06-15T08:16:33.658Z,98937.00
2019-06-15T08:17:39.990Z,98933.00
2019-06-15T08:18:45.099Z,98939.00
2019-06-15T08:19:51.429Z,98940.00
2019-06-15T08:20:56.793Z,98938.00
2019-06-15T08:22:03.066Z,98937.00
2019-06-15T08:23:09.087Z,98941.00
2019-06-15T08:24:15.780Z,98943.00
2019-06-15T08:25:21.321Z,98937.00
2019-06-15T08:26:27.180Z,98947.00
2019-06-15T08:27:32.248Z,98951.00
2019-06-15T08:28:40.523Z,98940.00
2019-06-15T08:29:45.089Z,98955.00
2019-06-15T08:30:50.955Z,98948.00
2019-06-15T08:31:56.238Z,98952.00
2019-06-15T08:33:02.325Z,98953.00
2019-06-15T08:34:07.945Z,98956.00
2019-06-15T08:35:14.009Z,98946.00
2019-06-15T08:36:19.309Z,98950.00
2019-06-15T08:37:25.164Z,98951.00
2019-06-15T08:38:31.205Z,98956.00
2019-06-15T08:39:37.048Z,98938.00
2019-06-15T08:40:42.619Z,98962.00
2019-06-15T08:41:49.338Z,98947.00
2019-06-15T08:42:55.629Z,98946.00
2019-06-15T08:44:02.168Z,98941.00
2019-06-15T08:45:08.283Z,98946.00
2019-06-15T08:46:14.539Z,98950.00
2019-06-15T08:47:20.086Z,98961.00
2019-06-15T08:48:25.986Z,98958.00
2019-06-15T08:49:31.113Z,98956.00
2019-06-15T08:50:37.377Z,98956.00
2019-06-15T08:51:43.204Z,98960.00
2019-06-15T08:52:49.389Z,98965.00
2019-06-15T08:53:54.882Z,98960.00
2019-06-15T08:55:00.962Z,98965.00
2019-06-15T08:56:08.409Z,98961.00
2019-06-15T08:57:14.360Z,98970.00
2019-06-15T08:58:20.266Z,98972.00
2019-06-15T08:59:26.855Z,98970.00
2019-06-15T09:00:32.061Z,98968.00
2019-06-15T09:01:38.020Z,98973.00
2019-06-15T09:02:43.538Z,98978.00
2019-06-15T09:03:49.622Z,98980.00
2019-06-15T09:04:55.702Z,98989.00
2019-06-15T09:06:01.682Z,98993.00
2019-06-15T09:07:06.925Z,98995.00
2019-06-15T09:08:13.146Z,98991.00
2019-06-15T09:09:18.652Z,98995.00
2019-06-15T09:10:24.521Z,98999.00
2019-06-15T09:11:30.069Z,98989.00
2019-06-15T09:12:36.262Z,98996.00
2019-06-15T09:13:41.446Z,98993.00
2019-06-15T09:14:47.410Z,98991.00
2019-06-15T09:15:54.099Z,98999.00
2019-06-15T09:17:00.409Z,99006.00
2019-06-15T09:18:05.665Z,99010.00
2019-06-15T09:19:11.621Z,99010.00
2019-06-15T09:20:17.260Z,99006.00
2019-06-15T09:21:23.640Z,99021.00
2019-06-15T09:22:32.121Z,99012.00
2019-06-15T09:23:38.656Z,99022.00
2019-06-15T09:24:44.147Z,99019.00
2019-06-15T09:25:50.557Z,99019.00
2019-06-15T09:26:55.960Z,99024.00
2019-06-15T09:28:02.058Z,99025.00
2019-06-15T09:29:11.143Z,99024.00
2019-06-15T09:30:15.057Z,99021.00
2019-06-15T09:31:20.765Z,99030.00
2019-06-15T09:32:26.598Z,99033.00
2019-06-15T09:33:31.784Z,99034.00
2019-06-15T09:34:38.220Z,99031.00
2019-06-15T09:35:43.702Z,99037.00
2019-06-15T09:36:49.961Z,99040.00
2019-06-15T09:37:55.148Z,99034.00
2019-06-15T09:39:01.024Z,99039.00
2019-06-15T09:40:07.188Z,99042.00
2019-06-15T09:41:13.427Z,99037.00
2019-06-15T09:42:18.588Z,99044.00
2019-06-15T09:43:24.815Z,99040.00
2019-06-15T09:44:30.238Z,99041.00
2019-06-15T09:45:36.742Z,99038.00
2019-06-15T09:46:41.870Z,99049.00
2019-06-15T09:47:48.724Z,99044.00
2019-06-15T09:48:54.192Z,99044.00
2019-06-15T09:50:00.138Z,99042.00
2019-06-15T09:51:05.355Z,99049.00
2019-06-15T09:52:11.733Z,99058.00
2019-06-15T09:53:16.889Z,99058.00
2019-06-15T09:54:22.907Z,99063.00
2019-06-15T09:55:28.083Z,99058.00
2019-06-15T09:56:34.000Z,99056.00
2019-06-15T09:57:39.615Z,99069.00
2019-06-15T09:58:45.885Z,99064.00
2019-06-15T09:59:51.408Z,99069.00
2019-06-15T10:00:57.689Z,99076.00
2019-06-15T10:02:02.894Z,99074.00
2019-06-15T10:03:09.349Z,99085.00
2019-06-15T10:04:14.552Z,99078.00
2019-06-15T10:05:20.500Z,99081.00
2019-06-15T10:06:26.017Z,99089.00
2019-06-15T10:07:32.242Z,99094.00
2019-06-15T10:08:38.307Z,99089.00
2019-06-15T10:09:44.505Z,99091.00
2019-06-15T10:10:49.720Z,99093.00
2019-06-15T10:11:55.679Z,99099.00
2019-06-15T10:13:00.842Z,99106.00
2019-06-15T10:14:07.171Z,99101.00
2019-06-15T10:15:12.974Z,99099.00
2019-06-15T10:16:19.242Z,99098.00
2019-06-15T10:17:24.687Z,99093.00
2019-06-15T10:18:30.900Z,99100.00
2019-06-15T10:19:36.339Z,99110.00
2019-06-15T10:20:42.649Z,99104.00
2019-06-15T10:21:48.122Z,99105.00
2019-06-15T10:22:54.303Z,99111.00
2019-06-15T10:23:59.560Z,99119.00
2019-06-15T10:25:05.672Z,99115.00
2019-06-15T10:26:10.809Z,99115.00
2019-06-15T10:27:16.764Z,99127.00
2019-06-15T10:28:22.351Z,99120.00
2019-06-15T10:29:41.179Z,99121.00
2019-06-15T10:30:35.440Z,99113.00
2019-06-15T10:31:41.428Z,99130.00
2019-06-15T10:32:46.890Z,99125.00
2019-06-15T10:33:52.896Z,99122.00
2019-06-15T10:34:58.289Z,99114.00
2019-06-15T10:36:04.624Z,99127.00
2019-06-15T10:37:10.114Z,99134.00
2019-06-15T10:38:16.675Z,99127.00
2019-06-15T10:39:21.802Z,99126.00
2019-06-15T10:40:28.033Z,99135.00
2019-06-15T10:41:33.261Z,99142.00
2019-06-15T10:42:39.244Z,99141.00
2019-06-15T10:43:44.434Z,99147.00
2019-06-15T10:44:50.700Z,99149.00
2019-06-15T10:45:56.234Z,99147.00
2019-06-15T10:47:02.539Z,99157.00
2019-06-15T10:48:07.712Z,99152.00
2019-06-15T10:49:13.643Z,99148.00
2019-06-15T10:50:19.043Z,99154.00
2019-06-15T10:51:25.355Z,99149.00
2019-06-15T10:52:30.557Z,99147.00
2019-06-15T10:53:36.742Z,99156.00
2019-06-15T10:54:42.243Z,99150.00
2019-06-15T10:55:48.764Z,99167.00
2019-06-15T10:56:53.960Z,99169.00
2019-06-15T10:57:59.950Z,99176.00
2019-06-15T10:59:05.313Z,99173.00
2019-06-15T11:00:14.520Z,99179.00
2019-06-15T11:01:20.029Z,99169.00
2019-06-15T11:02:26.029Z,99169.00
2019-06-15T11:03:31.908Z,99169.00
2019-06-15T11:04:38.755Z,99158.00
2019-06-15T11:05:43.962Z,99179.00
2019-06-15T11:06:49.954Z,99184.00
2019-06-15T11:07:55.506Z,99174.00
2019-06-15T11:09:01.812Z,99174.00
2019-06-15T11:10:09.971Z,99179.00
2019-06-15T11:11:23.626Z,99168.00
2019-06-15T11:12:45.131Z,99184.00
2019-06-15T11:13:37.622Z,99177.00
2019-06-15T11:14:42.773Z,99194.00
2019-06-15T11:15:49.772Z,99166.00
2019-06-15T11:16:55.218Z,99184.00
2019-06-15T11:18:01.701Z,99182.00
2019-06-15T11:19:07.339Z,99181.00
2019-06-15T11:20:15.031Z,99184.00
2019-06-15T11:21:20.598Z,99195.00
2019-06-15T11:22:27.299Z,99190.00
2019-06-15T11:23:32.890Z,99186.00
2019-06-15T11:24:39.164Z,99196.00
2019-06-15T11:25:44.620Z,99194.00
2019-06-15T11:26:50.954Z,99203.00
2019-06-15T11:27:56.204Z,99201.00
2019-06-15T11:29:02.238Z,99195.00
2019-06-15T11:30:13.469Z,99196.00
2019-06-15T11:31:15.747Z,99203.00
2019-06-15T11:32:21.682Z,99206.00
2019-06-15T11:33:27.713Z,99206.00
2019-06-15T11:34:32.869Z,99206.00
2019-06-15T11:35:38.977Z,99205.00
2019-06-15T11:36:44.541Z,99202.00
2019-06-15T11:37:50.528Z,99212.00
2019-06-15T11:38:55.799Z,99209.00
2019-06-15T11:40:01.915Z,99209.00
2019-06-15T11:41:07.644Z,99199.00
2019-06-15T11:42:13.625Z,99203.00
2019-06-15T11:43:19.128Z,99213.00
2019-06-15T11:44:25.609Z,99213.00
2019-06-15T11:45:31.196Z,99215.00
2019-06-15T11:46:37.480Z,99219.00
2019-06-15T11:47:42.966Z,99226.00
2019-06-15T11:48:49.542Z,99225.00
2019-06-15T11:49:55.420Z,99220.00
2019-06-15T11:51:02.485Z,99242.00
2019-06-15T11:52:07.840Z,99231.00
2019-06-15T11:53:13.924Z,99224.00
2019-06-15T11:54:19.408Z,99226.00
2019-06-15T11:55:38.571Z,99229.00
2019-06-15T11:56:32.861Z,99227.00
2019-06-15T11:57:39.155Z,99232.00
2019-06-15T11:58:44.387Z,99237.00
2019-06-15T11:59:50.405Z,99247.00
2019-06-15T12:00:55.632Z,99237.00
2019-06-15T12:02:01.754Z,99244.00
2019-06-15T12:03:06.958Z,99239.00
2019-06-15T12:04:13.227Z,99235.00
2019-06-15T12:05:18.729Z,99239.00
2019-06-15T12:06:25.018Z,99237.00
2019-06-15T12:07:30.524Z,99243.00
2019-06-15T12:08:36.622Z,99242.00
2019-06-15T12:09:41.901Z,99240.00
2019-06-15T12:10:48.867Z,99241.00
2019-06-15T12:11:54.018Z,99239.00
2019-06-15T12:13:00.326Z,99248.00
2019-06-15T12:14:05.864Z,99249.00
2019-06-15T12:15:12.270Z,99255.00
2019-06-15T12:16:17.482Z,99255.00
2019-06-15T12:17:23.464Z,99242.00
2019-06-15T12:18:28.769Z,99254.00
2019-06-15T12:19:35.025Z,99270.00
2019-06-15T12:20:40.227Z,99262.00
2019-06-15T12:21:46.641Z,99258.00
2019-06-15T12:22:52.131Z,99263.00
2019-06-15T12:23:58.174Z,99257.00
2019-06-15T12:25:03.408Z,99262.00
2019-06-15T12:26:09.360Z,99261.00
2019-06-15T12:27:14.993Z,99255.00
2019-06-15T12:28:21.047Z,99255.00
2019-06-15T12:29:26.414Z,99246.00
2019-06-15T12:30:47.094Z,99263.00
2019-06-15T12:31:49.780Z,99253.00
2019-06-15T12:32:56.269Z,99262.00
2019-06-15T12:34:01.403Z,99257.00
2019-06-15T12:35:07.941Z,99256.00
2019-06-15T12:36:18.986Z,99269.00
2019-06-15T12:37:21.770Z,99262.00
2019-06-15T12:38:27.252Z,99255.00
2019-06-15T12:39:33.124Z,99274.00
2019-06-15T12:40:38.331Z,99263.00
2019-06-15T12:41:44.843Z,99251.00
2019-06-15T12:42:49.903Z,99266.00
2019-06-15T12:43:56.151Z,99268.00
2019-06-15T12:45:02.098Z,99252.00
2019-06-15T12:46:08.024Z,99255.00
2019-06-15T12:47:13.204Z,99252.00
2019-06-15T12:48:19.372Z,99263.00
2019-06-15T12:49:24.897Z,99269.00
2019-06-15T12:50:31.369Z,99269.00
2019-06-15T12:51:38.856Z,99264.00
2019-06-15T12:52:44.781Z,99267.00
2019-06-15T12:53:50.097Z,99272.00
2019-06-15T12:54:56.636Z,99262.00